Airports Denmark Copenhagen Kastrup Airport

Copenhagen Kastrup Airport (EKCH / CPH)

Facts about Copenhagen Kastrup Airport

Name Copenhagen Kastrup Airport
City Copenhagen
Country Denmark
ICAO code EKCH
IATA code CPH
Elevation 5.1816 meters (17 feet)

Weather

METAR

Metar data retrieved Friday, 19 July 2024 at 23:55 UTC (29 minutes ago)

EKCH 192320Z AUTO 25003KT 9999 NCD 15/12 Q1019 NOSIG

Live traffic

Navigraph Charts (account required)